sensor_id;sensor_type;location;lat;lon;timestamp;temperature;humidity
33011;DHT22;19370;48.562;9.196;2022-12-07T00:01:21;3.20;99.90
33011;DHT22;19370;48.562;9.196;2022-12-07T00:03:48;3.10;99.90
33011;DHT22;19370;48.562;9.196;2022-12-07T00:06:16;3.20;99.90
33011;DHT22;19370;48.562;9.196;2022-12-07T00:08:42;3.10;99.90
33011;DHT22;19370;48.562;9.196;2022-12-07T00:11:14;3.10;99.90
33011;DHT22;19370;48.562;9.196;2022-12-07T00:13:41;3.10;99.90
33011;DHT22;19370;48.562;9.196;2022-12-07T00:16:09;3.10;99.90
33011;DHT22;19370;48.562;9.196;2022-12-07T00:18:35;3.10;99.90
33011;DHT22;19370;48.562;9.196;2022-12-07T00:21:05;3.10;99.90
33011;DHT22;19370;48.562;9.196;2022-12-07T00:23:32;3.10;99.90
33011;DHT22;19370;48.562;9.196;2022-12-07T00:26:14;3.10;99.90
33011;DHT22;19370;48.562;9.196;2022-12-07T00:28:40;3.10;99.90
33011;DHT22;19370;48.562;9.196;2022-12-07T00:31:09;3.10;99.90
33011;DHT22;19370;48.562;9.196;2022-12-07T00:33:35;3.10;99.90
33011;DHT22;19370;48.562;9.196;2022-12-07T00:36:05;3.10;99.90
33011;DHT22;19370;48.562;9.196;2022-12-07T00:38:33;3.10;99.90
33011;DHT22;19370;48.562;9.196;2022-12-07T00:41:04;3.10;99.90
33011;DHT22;19370;48.562;9.196;2022-12-07T00:43:31;3.20;99.90
33011;DHT22;19370;48.562;9.196;2022-12-07T00:45:57;3.10;99.90
33011;DHT22;19370;48.562;9.196;2022-12-07T00:48:24;3.10;99.90
33011;DHT22;19370;48.562;9.196;2022-12-07T00:50:50;3.10;99.90
33011;DHT22;19370;48.562;9.196;2022-12-07T00:53:16;3.20;99.90
33011;DHT22;19370;48.562;9.196;2022-12-07T00:55:43;3.20;99.90
33011;DHT22;19370;48.562;9.196;2022-12-07T00:58:09;3.20;99.90
33011;DHT22;19370;48.562;9.196;2022-12-07T01:00:37;3.20;99.90
33011;DHT22;19370;48.562;9.196;2022-12-07T01:03:05;3.20;99.90
33011;DHT22;19370;48.562;9.196;2022-12-07T01:05:31;3.20;99.90
33011;DHT22;19370;48.562;9.196;2022-12-07T01:07:57;3.20;99.90
33011;DHT22;19370;48.562;9.196;2022-12-07T01:10:23;3.10;99.90
33011;DHT22;19370;48.562;9.196;2022-12-07T01:12:49;3.20;99.90
33011;DHT22;19370;48.562;9.196;2022-12-07T01:15:15;3.20;99.90
33011;DHT22;19370;48.562;9.196;2022-12-07T01:17:41;3.20;99.90
33011;DHT22;19370;48.562;9.196;2022-12-07T01:20:07;3.20;99.90
33011;DHT22;19370;48.562;9.196;2022-12-07T01:22:41;3.20;99.90
33011;DHT22;19370;48.562;9.196;2022-12-07T01:25:08;3.10;99.90
33011;DHT22;19370;48.562;9.196;2022-12-07T01:27:36;3.10;99.90
33011;DHT22;19370;48.562;9.196;2022-12-07T01:30:04;3.10;99.90
33011;DHT22;19370;48.562;9.196;2022-12-07T01:32:31;3.10;99.90
33011;DHT22;19370;48.562;9.196;2022-12-07T01:34:57;3.20;99.90
33011;DHT22;19370;48.562;9.196;2022-12-07T01:37:23;3.10;99.90
33011;DHT22;19370;48.562;9.196;2022-12-07T01:39:50;3.10;99.90
33011;DHT22;19370;48.562;9.196;2022-12-07T01:42:16;3.10;99.90
33011;DHT22;19370;48.562;9.196;2022-12-07T01:47:52;3.10;99.90
33011;DHT22;19370;48.562;9.196;2022-12-07T01:50:20;3.10;99.90
33011;DHT22;19370;48.562;9.196;2022-12-07T01:52:48;3.20;99.90
33011;DHT22;19370;48.562;9.196;2022-12-07T01:55:15;3.20;99.90
33011;DHT22;19370;48.562;9.196;2022-12-07T01:57:45;3.10;99.90
33011;DHT22;19370;48.562;9.196;2022-12-07T02:00:12;3.10;99.90
33011;DHT22;19370;48.562;9.196;2022-12-07T02:02:59;3.10;99.90
33011;DHT22;19370;48.562;9.196;2022-12-07T02:05:27;3.10;99.90
33011;DHT22;19370;48.562;9.196;2022-12-07T02:07:55;3.10;99.90
33011;DHT22;19370;48.562;9.196;2022-12-07T02:10:24;3.10;99.90
33011;DHT22;19370;48.562;9.196;2022-12-07T02:13:08;3.20;99.90
33011;DHT22;19370;48.562;9.196;2022-12-07T02:21:16;3.20;99.90
33011;DHT22;19370;48.562;9.196;2022-12-07T02:26:36;3.10;99.90
33011;DHT22;19370;48.562;9.196;2022-12-07T02:29:20;3.10;99.90
33011;DHT22;19370;48.562;9.196;2022-12-07T02:32:09;3.10;99.90
33011;DHT22;19370;48.562;9.196;2022-12-07T02:34:49;3.10;99.90
33011;DHT22;19370;48.562;9.196;2022-12-07T02:42:41;3.00;99.90
33011;DHT22;19370;48.562;9.196;2022-12-07T02:45:08;3.00;99.90
33011;DHT22;19370;48.562;9.196;2022-12-07T02:47:36;3.00;99.90
33011;DHT22;19370;48.562;9.196;2022-12-07T02:50:05;3.00;99.90
33011;DHT22;19370;48.562;9.196;2022-12-07T02:52:31;3.00;99.90
33011;DHT22;19370;48.562;9.196;2022-12-07T02:54:57;2.90;99.90
33011;DHT22;19370;48.562;9.196;2022-12-07T03:00:18;3.00;99.90
33011;DHT22;19370;48.562;9.196;2022-12-07T03:02:58;3.10;99.90
33011;DHT22;19370;48.562;9.196;2022-12-07T03:11:03;3.10;99.90
33011;DHT22;19370;48.562;9.196;2022-12-07T03:13:48;3.10;99.90
33011;DHT22;19370;48.562;9.196;2022-12-07T03:16:20;3.00;99.90
33011;DHT22;19370;48.562;9.196;2022-12-07T03:19:00;3.00;99.90
33011;DHT22;19370;48.562;9.196;2022-12-07T03:21:39;3.00;99.90
33011;DHT22;19370;48.562;9.196;2022-12-07T03:24:14;3.00;99.90
33011;DHT22;19370;48.562;9.196;2022-12-07T03:27:01;3.00;99.90
33011;DHT22;19370;48.562;9.196;2022-12-07T03:29:37;3.00;99.90
33011;DHT22;19370;48.562;9.196;2022-12-07T03:32:08;3.00;99.90
33011;DHT22;19370;48.562;9.196;2022-12-07T03:34:44;2.90;99.90
33011;DHT22;19370;48.562;9.196;2022-12-07T03:37:23;2.90;99.90
33011;DHT22;19370;48.562;9.196;2022-12-07T03:42:30;2.90;99.90
33011;DHT22;19370;48.562;9.196;2022-12-07T03:44:56;2.90;99.90
33011;DHT22;19370;48.562;9.196;2022-12-07T03:50:38;2.90;99.90
33011;DHT22;19370;48.562;9.196;2022-12-07T03:53:20;2.90;99.90
33011;DHT22;19370;48.562;9.196;2022-12-07T03:55:48;3.00;99.90
33011;DHT22;19370;48.562;9.196;2022-12-07T03:58:18;2.90;99.90
33011;DHT22;19370;48.562;9.196;2022-12-07T04:00:44;2.90;99.90
33011;DHT22;19370;48.562;9.196;2022-12-07T04:03:10;2.90;99.90
33011;DHT22;19370;48.562;9.196;2022-12-07T04:05:37;2.90;99.90
33011;DHT22;19370;48.562;9.196;2022-12-07T04:08:03;2.90;99.90
33011;DHT22;19370;48.562;9.196;2022-12-07T04:10:29;2.80;99.90
33011;DHT22;19370;48.562;9.196;2022-12-07T04:12:55;2.90;99.90
33011;DHT22;19370;48.562;9.196;2022-12-07T04:15:21;2.80;99.90
33011;DHT22;19370;48.562;9.196;2022-12-07T04:17:47;2.90;99.90
33011;DHT22;19370;48.562;9.196;2022-12-07T04:20:12;2.80;99.90
33011;DHT22;19370;48.562;9.196;2022-12-07T04:22:39;2.70;99.90
33011;DHT22;19370;48.562;9.196;2022-12-07T04:25:05;2.60;99.90
33011;DHT22;19370;48.562;9.196;2022-12-07T04:27:31;2.60;99.90
33011;DHT22;19370;48.562;9.196;2022-12-07T04:29:57;2.60;99.90
33011;DHT22;19370;48.562;9.196;2022-12-07T04:32:23;2.70;99.90
33011;DHT22;19370;48.562;9.196;2022-12-07T04:34:50;2.70;99.90
33011;DHT22;19370;48.562;9.196;2022-12-07T04:37:16;2.70;99.90
33011;DHT22;19370;48.562;9.196;2022-12-07T04:39:42;2.60;99.90
33011;DHT22;19370;48.562;9.196;2022-12-07T04:42:10;2.60;99.90
33011;DHT22;19370;48.562;9.196;2022-12-07T04:44:36;2.50;99.90
33011;DHT22;19370;48.562;9.196;2022-12-07T04:47:02;2.50;99.90
33011;DHT22;19370;48.562;9.196;2022-12-07T04:49:28;2.50;99.90
33011;DHT22;19370;48.562;9.196;2022-12-07T04:51:54;2.50;99.90
33011;DHT22;19370;48.562;9.196;2022-12-07T04:54:20;2.50;99.90
33011;DHT22;19370;48.562;9.196;2022-12-07T04:56:46;2.50;99.90
33011;DHT22;19370;48.562;9.196;2022-12-07T04:59:13;2.50;99.90
33011;DHT22;19370;48.562;9.196;2022-12-07T05:01:40;2.40;99.90
33011;DHT22;19370;48.562;9.196;2022-12-07T05:04:06;2.30;99.90
33011;DHT22;19370;48.562;9.196;2022-12-07T05:06:31;2.30;99.90
33011;DHT22;19370;48.562;9.196;2022-12-07T05:08:57;2.30;99.90
33011;DHT22;19370;48.562;9.196;2022-12-07T05:11:23;2.30;99.90
33011;DHT22;19370;48.562;9.196;2022-12-07T05:14:07;2.20;99.90
33011;DHT22;19370;48.562;9.196;2022-12-07T05:16:33;2.30;99.90
33011;DHT22;19370;48.562;9.196;2022-12-07T05:18:59;2.20;99.90
33011;DHT22;19370;48.562;9.196;2022-12-07T05:21:25;2.20;99.90
33011;DHT22;19370;48.562;9.196;2022-12-07T05:23:50;2.20;99.90
33011;DHT22;19370;48.562;9.196;2022-12-07T05:26:16;2.20;99.90
33011;DHT22;19370;48.562;9.196;2022-12-07T05:28:43;2.10;99.90
33011;DHT22;19370;48.562;9.196;2022-12-07T05:31:08;2.20;99.90
33011;DHT22;19370;48.562;9.196;2022-12-07T05:33:34;2.10;99.90
33011;DHT22;19370;48.562;9.196;2022-12-07T05:36:00;2.10;99.90
33011;DHT22;19370;48.562;9.196;2022-12-07T05:38:31;2.10;99.90
33011;DHT22;19370;48.562;9.196;2022-12-07T05:41:07;2.10;99.90
33011;DHT22;19370;48.562;9.196;2022-12-07T05:43:53;2.00;99.90
33011;DHT22;19370;48.562;9.196;2022-12-07T05:46:19;1.90;99.90
33011;DHT22;19370;48.562;9.196;2022-12-07T05:48:45;1.90;99.90
33011;DHT22;19370;48.562;9.196;2022-12-07T05:51:10;1.80;99.90
33011;DHT22;19370;48.562;9.196;2022-12-07T05:53:38;1.80;99.90
33011;DHT22;19370;48.562;9.196;2022-12-07T05:56:04;1.70;99.90
33011;DHT22;19370;48.562;9.196;2022-12-07T05:58:30;1.60;99.90
33011;DHT22;19370;48.562;9.196;2022-12-07T06:01:14;1.60;99.90
33011;DHT22;19370;48.562;9.196;2022-12-07T06:03:40;1.40;99.90
33011;DHT22;19370;48.562;9.196;2022-12-07T06:06:06;1.40;99.90
33011;DHT22;19370;48.562;9.196;2022-12-07T06:08:31;1.40;99.90
33011;DHT22;19370;48.562;9.196;2022-12-07T06:10:57;1.30;99.90
33011;DHT22;19370;48.562;9.196;2022-12-07T06:13:41;1.40;99.90
33011;DHT22;19370;48.562;9.196;2022-12-07T06:16:07;1.50;99.90
33011;DHT22;19370;48.562;9.196;2022-12-07T06:18:33;1.40;99.90
33011;DHT22;19370;48.562;9.196;2022-12-07T06:20:59;1.40;99.90
33011;DHT22;19370;48.562;9.196;2022-12-07T06:23:24;1.30;99.90
33011;DHT22;19370;48.562;9.196;2022-12-07T06:25:51;1.40;99.90
33011;DHT22;19370;48.562;9.196;2022-12-07T06:28:17;1.40;99.90
33011;DHT22;19370;48.562;9.196;2022-12-07T06:30:43;1.40;99.90
33011;DHT22;19370;48.562;9.196;2022-12-07T06:33:09;1.50;99.90
33011;DHT22;19370;48.562;9.196;2022-12-07T06:35:34;1.50;99.90
33011;DHT22;19370;48.562;9.196;2022-12-07T06:38:01;1.40;99.90
33011;DHT22;19370;48.562;9.196;2022-12-07T06:40:26;1.30;99.90
33011;DHT22;19370;48.562;9.196;2022-12-07T06:42:55;1.30;99.90
33011;DHT22;19370;48.562;9.196;2022-12-07T06:45:21;1.40;99.90
33011;DHT22;19370;48.562;9.196;2022-12-07T06:47:47;1.40;99.90
33011;DHT22;19370;48.562;9.196;2022-12-07T06:50:13;1.60;99.90
33011;DHT22;19370;48.562;9.196;2022-12-07T06:52:38;1.50;99.90
33011;DHT22;19370;48.562;9.196;2022-12-07T06:55:04;1.60;99.90
33011;DHT22;19370;48.562;9.196;2022-12-07T06:57:30;1.70;99.90
33011;DHT22;19370;48.562;9.196;2022-12-07T06:59:56;1.70;99.90
33011;DHT22;19370;48.562;9.196;2022-12-07T07:02:22;1.70;99.90
33011;DHT22;19370;48.562;9.196;2022-12-07T07:04:47;1.70;99.90
33011;DHT22;19370;48.562;9.196;2022-12-07T07:07:13;1.70;99.90
33011;DHT22;19370;48.562;9.196;2022-12-07T07:09:39;1.70;99.90
33011;DHT22;19370;48.562;9.196;2022-12-07T07:12:04;1.80;99.90
33011;DHT22;19370;48.562;9.196;2022-12-07T07:14:30;1.80;99.90
33011;DHT22;19370;48.562;9.196;2022-12-07T07:16:56;1.90;99.90
33011;DHT22;19370;48.562;9.196;2022-12-07T07:19:21;2.00;99.90
33011;DHT22;19370;48.562;9.196;2022-12-07T07:21:48;1.90;99.90
33011;DHT22;19370;48.562;9.196;2022-12-07T07:24:13;2.00;99.90
33011;DHT22;19370;48.562;9.196;2022-12-07T07:26:39;1.90;99.90
33011;DHT22;19370;48.562;9.196;2022-12-07T07:29:05;1.80;99.90
33011;DHT22;19370;48.562;9.196;2022-12-07T07:31:30;1.80;99.90
33011;DHT22;19370;48.562;9.196;2022-12-07T07:33:56;1.90;99.90
33011;DHT22;19370;48.562;9.196;2022-12-07T07:36:22;1.90;99.90
33011;DHT22;19370;48.562;9.196;2022-12-07T07:38:48;1.80;99.90
33011;DHT22;19370;48.562;9.196;2022-12-07T07:41:14;1.80;99.90
33011;DHT22;19370;48.562;9.196;2022-12-07T07:43:39;1.80;99.90
33011;DHT22;19370;48.562;9.196;2022-12-07T07:46:05;1.80;99.90
33011;DHT22;19370;48.562;9.196;2022-12-07T07:48:31;1.90;99.90
33011;DHT22;19370;48.562;9.196;2022-12-07T07:50:57;1.90;99.90
33011;DHT22;19370;48.562;9.196;2022-12-07T07:53:23;2.00;99.90
33011;DHT22;19370;48.562;9.196;2022-12-07T07:55:53;2.00;99.90
33011;DHT22;19370;48.562;9.196;2022-12-07T07:58:19;2.10;99.90
33011;DHT22;19370;48.562;9.196;2022-12-07T08:00:45;2.00;99.90
33011;DHT22;19370;48.562;9.196;2022-12-07T08:03:11;2.20;99.90
33011;DHT22;19370;48.562;9.196;2022-12-07T08:05:37;2.20;99.90
33011;DHT22;19370;48.562;9.196;2022-12-07T08:08:03;2.30;99.90
33011;DHT22;19370;48.562;9.196;2022-12-07T08:10:29;2.40;99.90
33011;DHT22;19370;48.562;9.196;2022-12-07T08:12:54;2.40;99.90
33011;DHT22;19370;48.562;9.196;2022-12-07T08:15:41;2.50;99.90
33011;DHT22;19370;48.562;9.196;2022-12-07T08:18:07;2.50;99.90
33011;DHT22;19370;48.562;9.196;2022-12-07T08:20:35;2.40;99.90
33011;DHT22;19370;48.562;9.196;2022-12-07T08:23:01;2.40;99.90
33011;DHT22;19370;48.562;9.196;2022-12-07T08:25:28;2.30;99.90
33011;DHT22;19370;48.562;9.196;2022-12-07T08:27:54;2.30;99.90
33011;DHT22;19370;48.562;9.196;2022-12-07T08:30:20;2.20;99.90
33011;DHT22;19370;48.562;9.196;2022-12-07T08:32:47;2.20;99.90
33011;DHT22;19370;48.562;9.196;2022-12-07T08:35:14;2.20;99.90
33011;DHT22;19370;48.562;9.196;2022-12-07T08:37:40;2.30;99.90
33011;DHT22;19370;48.562;9.196;2022-12-07T08:40:08;2.40;99.90
33011;DHT22;19370;48.562;9.196;2022-12-07T08:42:38;2.40;99.90
33011;DHT22;19370;48.562;9.196;2022-12-07T08:45:07;2.50;99.90
33011;DHT22;19370;48.562;9.196;2022-12-07T08:47:36;2.50;99.90
33011;DHT22;19370;48.562;9.196;2022-12-07T08:50:04;2.40;99.90
33011;DHT22;19370;48.562;9.196;2022-12-07T08:52:31;2.50;99.90
33011;DHT22;19370;48.562;9.196;2022-12-07T08:54:58;2.50;99.90
33011;DHT22;19370;48.562;9.196;2022-12-07T08:57:26;2.50;99.90
33011;DHT22;19370;48.562;9.196;2022-12-07T08:59:52;2.50;99.90
33011;DHT22;19370;48.562;9.196;2022-12-07T09:02:18;2.50;99.90
33011;DHT22;19370;48.562;9.196;2022-12-07T09:04:44;2.60;99.90
33011;DHT22;19370;48.562;9.196;2022-12-07T09:07:10;2.60;99.90
33011;DHT22;19370;48.562;9.196;2022-12-07T09:09:36;2.60;99.90
33011;DHT22;19370;48.562;9.196;2022-12-07T09:12:02;2.70;99.90
33011;DHT22;19370;48.562;9.196;2022-12-07T09:14:28;2.60;99.90
33011;DHT22;19370;48.562;9.196;2022-12-07T09:16:54;2.70;99.90
33011;DHT22;19370;48.562;9.196;2022-12-07T09:19:19;2.60;99.90
33011;DHT22;19370;48.562;9.196;2022-12-07T09:21:45;2.70;99.90
33011;DHT22;19370;48.562;9.196;2022-12-07T09:24:12;2.70;99.90
33011;DHT22;19370;48.562;9.196;2022-12-07T09:26:38;2.70;99.90
33011;DHT22;19370;48.562;9.196;2022-12-07T09:29:06;2.70;99.90
33011;DHT22;19370;48.562;9.196;2022-12-07T09:31:31;2.80;99.90
33011;DHT22;19370;48.562;9.196;2022-12-07T09:33:59;2.80;99.90
33011;DHT22;19370;48.562;9.196;2022-12-07T09:36:25;2.90;99.90
33011;DHT22;19370;48.562;9.196;2022-12-07T09:38:51;2.90;99.90
33011;DHT22;19370;48.562;9.196;2022-12-07T09:41:18;3.00;99.90
33011;DHT22;19370;48.562;9.196;2022-12-07T09:43:44;3.00;99.90
33011;DHT22;19370;48.562;9.196;2022-12-07T09:46:16;3.10;99.90
33011;DHT22;19370;48.562;9.196;2022-12-07T09:48:44;3.20;99.90
33011;DHT22;19370;48.562;9.196;2022-12-07T09:51:16;3.20;99.90
33011;DHT22;19370;48.562;9.196;2022-12-07T09:53:43;3.20;99.90
33011;DHT22;19370;48.562;9.196;2022-12-07T09:56:15;3.40;99.90
33011;DHT22;19370;48.562;9.196;2022-12-07T09:58:42;3.40;99.90
33011;DHT22;19370;48.562;9.196;2022-12-07T10:03:38;3.60;99.90
33011;DHT22;19370;48.562;9.196;2022-12-07T10:06:05;3.60;99.90
33011;DHT22;19370;48.562;9.196;2022-12-07T10:08:32;3.60;99.90
33011;DHT22;19370;48.562;9.196;2022-12-07T10:10:59;3.60;99.90
33011;DHT22;19370;48.562;9.196;2022-12-07T10:13:42;3.70;99.90
33011;DHT22;19370;48.562;9.196;2022-12-07T10:18:50;3.70;99.90
33011;DHT22;19370;48.562;9.196;2022-12-07T10:21:34;3.70;99.90
33011;DHT22;19370;48.562;9.196;2022-12-07T10:24:13;3.50;99.90
33011;DHT22;19370;48.562;9.196;2022-12-07T10:26:52;3.40;99.90
33011;DHT22;19370;48.562;9.196;2022-12-07T10:29:38;3.50;99.90
33011;DHT22;19370;48.562;9.196;2022-12-07T10:32:24;3.50;99.90
33011;DHT22;19370;48.562;9.196;2022-12-07T11:50:59;4.20;99.90
33011;DHT22;19370;48.562;9.196;2022-12-07T11:53:55;4.10;99.90
33011;DHT22;19370;48.562;9.196;2022-12-07T11:56:28;4.10;99.90
33011;DHT22;19370;48.562;9.196;2022-12-07T12:02:02;4.10;99.90
33011;DHT22;19370;48.562;9.196;2022-12-07T12:06:59;4.10;99.90
33011;DHT22;19370;48.562;9.196;2022-12-07T12:09:36;4.10;99.90
33011;DHT22;19370;48.562;9.196;2022-12-07T12:12:42;4.00;99.90
33011;DHT22;19370;48.562;9.196;2022-12-07T12:25:56;4.00;99.90
33011;DHT22;19370;48.562;9.196;2022-12-07T12:28:29;4.10;99.90
33011;DHT22;19370;48.562;9.196;2022-12-07T12:34:01;4.00;99.90
33011;DHT22;19370;48.562;9.196;2022-12-07T12:39:14;4.00;99.90
33011;DHT22;19370;48.562;9.196;2022-12-07T12:51:55;4.10;99.90
33011;DHT22;19370;48.562;9.196;2022-12-07T12:54:31;4.00;99.90
33011;DHT22;19370;48.562;9.196;2022-12-07T12:59:57;4.10;99.90
33011;DHT22;19370;48.562;9.196;2022-12-07T13:02:37;4.00;99.90
33011;DHT22;19370;48.562;9.196;2022-12-07T13:15:37;4.10;99.90
33011;DHT22;19370;48.562;9.196;2022-12-07T13:23:38;4.00;99.90
33011;DHT22;19370;48.562;9.196;2022-12-07T13:34:38;4.00;99.90
33011;DHT22;19370;48.562;9.196;2022-12-07T13:39:33;4.10;99.90
33011;DHT22;19370;48.562;9.196;2022-12-07T13:42:11;4.20;99.90
33011;DHT22;19370;48.562;9.196;2022-12-07T13:44:40;4.20;99.90
33011;DHT22;19370;48.562;9.196;2022-12-07T13:47:15;4.20;99.90
33011;DHT22;19370;48.562;9.196;2022-12-07T13:49:56;4.30;99.90
33011;DHT22;19370;48.562;9.196;2022-12-07T13:52:26;4.30;99.90
33011;DHT22;19370;48.562;9.196;2022-12-07T13:54:56;4.20;99.90
33011;DHT22;19370;48.562;9.196;2022-12-07T13:57:24;4.20;99.90
33011;DHT22;19370;48.562;9.196;2022-12-07T13:59:52;4.20;99.90
33011;DHT22;19370;48.562;9.196;2022-12-07T14:02:33;4.20;99.90
33011;DHT22;19370;48.562;9.196;2022-12-07T14:05:23;4.20;99.90
33011;DHT22;19370;48.562;9.196;2022-12-07T14:07:57;4.20;99.90
33011;DHT22;19370;48.562;9.196;2022-12-07T14:10:32;4.20;99.90
33011;DHT22;19370;48.562;9.196;2022-12-07T14:13:00;4.00;99.90
33011;DHT22;19370;48.562;9.196;2022-12-07T14:15:34;4.00;99.90
33011;DHT22;19370;48.562;9.196;2022-12-07T14:18:02;3.90;99.90
33011;DHT22;19370;48.562;9.196;2022-12-07T14:20:37;3.90;99.90
33011;DHT22;19370;48.562;9.196;2022-12-07T14:23:03;4.00;99.90
33011;DHT22;19370;48.562;9.196;2022-12-07T14:25:54;3.90;99.90
33011;DHT22;19370;48.562;9.196;2022-12-07T14:28:35;4.00;99.90
33011;DHT22;19370;48.562;9.196;2022-12-07T14:31:01;3.90;99.90
33011;DHT22;19370;48.562;9.196;2022-12-07T14:33:28;3.90;99.90
33011;DHT22;19370;48.562;9.196;2022-12-07T14:35:54;4.00;99.90
33011;DHT22;19370;48.562;9.196;2022-12-07T14:38:23;4.00;99.90
33011;DHT22;19370;48.562;9.196;2022-12-07T14:40:53;4.00;99.90
33011;DHT22;19370;48.562;9.196;2022-12-07T14:43:20;3.90;99.90
33011;DHT22;19370;48.562;9.196;2022-12-07T14:45:46;4.00;99.90
33011;DHT22;19370;48.562;9.196;2022-12-07T14:48:13;4.00;99.90
33011;DHT22;19370;48.562;9.196;2022-12-07T14:50:51;4.00;99.90
33011;DHT22;19370;48.562;9.196;2022-12-07T14:53:20;4.00;99.90
33011;DHT22;19370;48.562;9.196;2022-12-07T14:55:50;4.00;99.90
33011;DHT22;19370;48.562;9.196;2022-12-07T14:58:16;4.00;99.90
33011;DHT22;19370;48.562;9.196;2022-12-07T15:00:43;4.00;99.90
33011;DHT22;19370;48.562;9.196;2022-12-07T15:03:09;4.00;99.90
33011;DHT22;19370;48.562;9.196;2022-12-07T15:05:36;3.90;99.90
33011;DHT22;19370;48.562;9.196;2022-12-07T15:08:02;3.90;99.90
33011;DHT22;19370;48.562;9.196;2022-12-07T15:10:31;3.80;99.90
33011;DHT22;19370;48.562;9.196;2022-12-07T15:12:58;3.80;99.90
33011;DHT22;19370;48.562;9.196;2022-12-07T15:15:49;3.80;99.90
33011;DHT22;19370;48.562;9.196;2022-12-07T15:18:16;3.80;99.90
33011;DHT22;19370;48.562;9.196;2022-12-07T15:20:42;3.90;99.90
33011;DHT22;19370;48.562;9.196;2022-12-07T15:23:08;3.80;99.90
33011;DHT22;19370;48.562;9.196;2022-12-07T15:25:35;3.80;99.90
33011;DHT22;19370;48.562;9.196;2022-12-07T15:28:00;3.80;99.90
33011;DHT22;19370;48.562;9.196;2022-12-07T15:30:26;3.80;99.90
33011;DHT22;19370;48.562;9.196;2022-12-07T15:32:52;3.70;99.90
33011;DHT22;19370;48.562;9.196;2022-12-07T15:35:19;3.70;99.90
33011;DHT22;19370;48.562;9.196;2022-12-07T15:37:45;3.70;99.90
33011;DHT22;19370;48.562;9.196;2022-12-07T15:40:12;3.70;99.90
33011;DHT22;19370;48.562;9.196;2022-12-07T15:42:38;3.70;99.90
33011;DHT22;19370;48.562;9.196;2022-12-07T15:45:05;3.70;99.90
33011;DHT22;19370;48.562;9.196;2022-12-07T15:47:40;3.60;99.90
33011;DHT22;19370;48.562;9.196;2022-12-07T15:50:09;3.60;99.90
33011;DHT22;19370;48.562;9.196;2022-12-07T15:52:35;3.60;99.90
33011;DHT22;19370;48.562;9.196;2022-12-07T15:55:02;3.60;99.90
33011;DHT22;19370;48.562;9.196;2022-12-07T15:57:29;3.60;99.90
33011;DHT22;19370;48.562;9.196;2022-12-07T15:59:55;3.50;99.90
33011;DHT22;19370;48.562;9.196;2022-12-07T16:02:21;3.50;99.90
33011;DHT22;19370;48.562;9.196;2022-12-07T16:04:48;3.50;99.90
33011;DHT22;19370;48.562;9.196;2022-12-07T16:07:14;3.50;99.90
33011;DHT22;19370;48.562;9.196;2022-12-07T16:09:42;3.60;99.90
33011;DHT22;19370;48.562;9.196;2022-12-07T16:12:09;3.50;99.90
33011;DHT22;19370;48.562;9.196;2022-12-07T16:14:36;3.50;99.90
33011;DHT22;19370;48.562;9.196;2022-12-07T16:17:02;3.50;99.90
33011;DHT22;19370;48.562;9.196;2022-12-07T16:19:27;3.50;99.90
33011;DHT22;19370;48.562;9.196;2022-12-07T16:21:53;3.40;99.90
33011;DHT22;19370;48.562;9.196;2022-12-07T16:24:19;3.40;99.90
33011;DHT22;19370;48.562;9.196;2022-12-07T16:26:45;3.40;99.90
33011;DHT22;19370;48.562;9.196;2022-12-07T16:29:12;3.40;99.90
33011;DHT22;19370;48.562;9.196;2022-12-07T16:31:39;3.40;99.90
33011;DHT22;19370;48.562;9.196;2022-12-07T16:34:04;3.40;99.90
33011;DHT22;19370;48.562;9.196;2022-12-07T16:36:30;3.40;99.90
33011;DHT22;19370;48.562;9.196;2022-12-07T16:38:58;3.40;99.90
33011;DHT22;19370;48.562;9.196;2022-12-07T16:41:24;3.40;99.90
33011;DHT22;19370;48.562;9.196;2022-12-07T16:43:50;3.40;99.90
33011;DHT22;19370;48.562;9.196;2022-12-07T16:46:16;3.50;99.90
33011;DHT22;19370;48.562;9.196;2022-12-07T16:48:42;3.50;99.90
33011;DHT22;19370;48.562;9.196;2022-12-07T16:51:10;3.40;99.90
33011;DHT22;19370;48.562;9.196;2022-12-07T16:53:37;3.40;99.90
33011;DHT22;19370;48.562;9.196;2022-12-07T16:56:03;3.40;99.90
33011;DHT22;19370;48.562;9.196;2022-12-07T16:58:30;3.30;99.90
33011;DHT22;19370;48.562;9.196;2022-12-07T17:00:56;3.30;99.90
33011;DHT22;19370;48.562;9.196;2022-12-07T17:03:22;3.30;99.90
33011;DHT22;19370;48.562;9.196;2022-12-07T17:05:48;3.20;99.90
33011;DHT22;19370;48.562;9.196;2022-12-07T17:08:14;3.20;99.90
33011;DHT22;19370;48.562;9.196;2022-12-07T17:10:42;3.10;99.90
33011;DHT22;19370;48.562;9.196;2022-12-07T17:13:09;3.10;99.90
33011;DHT22;19370;48.562;9.196;2022-12-07T17:16:01;3.10;99.90
33011;DHT22;19370;48.562;9.196;2022-12-07T17:18:29;3.10;99.90
33011;DHT22;19370;48.562;9.196;2022-12-07T17:21:02;3.10;99.90
33011;DHT22;19370;48.562;9.196;2022-12-07T17:23:29;3.00;99.90
33011;DHT22;19370;48.562;9.196;2022-12-07T17:25:55;3.00;99.90
33011;DHT22;19370;48.562;9.196;2022-12-07T17:28:21;3.00;99.90
33011;DHT22;19370;48.562;9.196;2022-12-07T17:30:47;3.00;99.90
33011;DHT22;19370;48.562;9.196;2022-12-07T17:33:14;2.90;99.90
33011;DHT22;19370;48.562;9.196;2022-12-07T17:35:41;2.90;99.90
33011;DHT22;19370;48.562;9.196;2022-12-07T17:38:06;2.80;99.90
33011;DHT22;19370;48.562;9.196;2022-12-07T17:40:32;2.80;99.90
33011;DHT22;19370;48.562;9.196;2022-12-07T17:42:58;2.80;99.90
33011;DHT22;19370;48.562;9.196;2022-12-07T17:45:24;2.80;99.90
33011;DHT22;19370;48.562;9.196;2022-12-07T17:47:49;2.80;99.90
33011;DHT22;19370;48.562;9.196;2022-12-07T17:50:15;2.90;99.90
33011;DHT22;19370;48.562;9.196;2022-12-07T17:52:41;2.90;99.90
33011;DHT22;19370;48.562;9.196;2022-12-07T17:55:26;2.90;99.90
33011;DHT22;19370;48.562;9.196;2022-12-07T17:57:52;2.90;99.90
33011;DHT22;19370;48.562;9.196;2022-12-07T18:00:18;2.90;99.90
33011;DHT22;19370;48.562;9.196;2022-12-07T18:02:44;2.90;99.90
33011;DHT22;19370;48.562;9.196;2022-12-07T18:05:10;2.80;99.90
33011;DHT22;19370;48.562;9.196;2022-12-07T18:07:36;2.80;99.90
33011;DHT22;19370;48.562;9.196;2022-12-07T18:10:02;2.80;99.90
33011;DHT22;19370;48.562;9.196;2022-12-07T18:12:29;2.80;99.90
33011;DHT22;19370;48.562;9.196;2022-12-07T18:14:58;2.80;99.90
33011;DHT22;19370;48.562;9.196;2022-12-07T18:17:23;2.80;99.90
33011;DHT22;19370;48.562;9.196;2022-12-07T18:19:52;2.90;99.90
33011;DHT22;19370;48.562;9.196;2022-12-07T18:22:18;2.80;99.90
33011;DHT22;19370;48.562;9.196;2022-12-07T18:24:44;2.80;99.90
33011;DHT22;19370;48.562;9.196;2022-12-07T18:27:09;2.80;99.90
33011;DHT22;19370;48.562;9.196;2022-12-07T18:29:35;2.80;99.90
33011;DHT22;19370;48.562;9.196;2022-12-07T18:32:01;2.80;99.90
33011;DHT22;19370;48.562;9.196;2022-12-07T18:34:29;2.80;99.90
33011;DHT22;19370;48.562;9.196;2022-12-07T18:36:55;2.80;99.90
33011;DHT22;19370;48.562;9.196;2022-12-07T18:39:21;2.70;99.90
33011;DHT22;19370;48.562;9.196;2022-12-07T18:41:47;2.70;99.90
33011;DHT22;19370;48.562;9.196;2022-12-07T18:44:13;2.70;99.90
33011;DHT22;19370;48.562;9.196;2022-12-07T18:46:39;2.70;99.90
33011;DHT22;19370;48.562;9.196;2022-12-07T18:49:08;2.70;99.90